createdAt,value
2022-09-09T00:00:54.902Z,0.73
2022-09-09T00:03:27.756Z,0.70
2022-09-09T00:06:08.307Z,1.00
2022-09-09T00:08:55.872Z,0.83
2022-09-09T00:11:31.520Z,0.93
2022-09-09T00:14:01.268Z,0.80
2022-09-09T00:16:31.845Z,1.00
2022-09-09T00:19:33.427Z,1.37
2022-09-09T00:22:05.763Z,0.77
2022-09-09T00:24:43.178Z,1.00
2022-09-09T00:27:23.071Z,1.20
2022-09-09T00:29:56.873Z,1.10
2022-09-09T00:32:25.017Z,1.00
2022-09-09T00:35:00.907Z,1.30
2022-09-09T00:37:29.461Z,0.90
2022-09-09T00:40:01.715Z,0.80
2022-09-09T00:42:41.864Z,1.00
2022-09-09T00:45:21.055Z,1.20
2022-09-09T00:47:51.243Z,1.00
2022-09-09T00:50:46.229Z,0.73
2022-09-09T00:53:19.240Z,0.97
2022-09-09T00:56:01.009Z,0.83
2022-09-09T00:58:28.703Z,0.83
2022-09-09T01:01:07.560Z,0.80
2022-09-09T01:03:38.127Z,1.10
2022-09-09T01:06:27.670Z,0.70
2022-09-09T01:08:54.048Z,0.90
2022-09-09T01:11:27.799Z,1.10
2022-09-09T01:14:02.566Z,1.17
2022-09-09T01:16:33.128Z,1.20
2022-09-09T01:19:01.459Z,1.20
2022-09-09T01:22:14.141Z,0.90
2022-09-09T01:24:49.809Z,0.83
2022-09-09T01:27:37.457Z,1.10
2022-09-09T01:30:12.303Z,0.60
2022-09-09T01:32:43.439Z,1.20
2022-09-09T01:35:31.235Z,1.00
2022-09-09T01:37:58.791Z,0.90
2022-09-09T01:40:26.046Z,1.00
2022-09-09T01:42:54.507Z,1.80
2022-09-09T01:45:22.457Z,1.57
2022-09-09T01:47:49.548Z,1.40
2022-09-09T01:50:21.600Z,1.67
2022-09-09T01:52:53.168Z,1.70
2022-09-09T01:55:30.645Z,1.17
2022-09-09T01:58:00.820Z,1.57
2022-09-09T02:00:27.801Z,1.87
2022-09-09T02:02:57.883Z,2.80
2022-09-09T02:05:35.011Z,2.40
2022-09-09T02:08:08.114Z,1.70
2022-09-09T02:11:10.988Z,1.60
2022-09-09T02:13:46.754Z,1.93
2022-09-09T02:16:22.183Z,1.53
2022-09-09T02:18:55.795Z,1.10
2022-09-09T02:21:31.308Z,1.60
2022-09-09T02:24:01.126Z,1.10
2022-09-09T02:26:29.742Z,1.60
2022-09-09T02:29:06.113Z,1.50
2022-09-09T02:31:32.463Z,1.50
2022-09-09T02:34:04.435Z,1.10
2022-09-09T02:36:34.198Z,1.60
2022-09-09T02:39:01.644Z,1.20
2022-09-09T02:41:34.650Z,1.60
2022-09-09T02:44:01.725Z,1.30
2022-09-09T02:46:57.103Z,1.30
2022-09-09T02:50:00.251Z,1.20
2022-09-09T02:52:38.194Z,1.40
2022-09-09T02:55:24.942Z,1.10
2022-09-09T02:57:54.916Z,1.40
2022-09-09T03:00:28.860Z,1.30
2022-09-09T03:03:00.379Z,1.37
2022-09-09T03:05:27.088Z,1.10
2022-09-09T03:07:53.375Z,1.37
2022-09-09T03:10:20.639Z,1.77
2022-09-09T03:12:47.209Z,1.40
2022-09-09T03:15:13.962Z,1.40
2022-09-09T03:17:40.336Z,1.73
2022-09-09T03:20:06.902Z,1.30
2022-09-09T03:22:33.369Z,1.20
2022-09-09T03:25:01.051Z,1.20
2022-09-09T03:27:28.344Z,1.40
2022-09-09T03:29:55.284Z,1.93
2022-09-09T03:32:25.596Z,1.40
2022-09-09T03:34:53.402Z,1.73
2022-09-09T03:37:21.020Z,1.57
2022-09-09T03:39:49.432Z,1.50
2022-09-09T03:42:19.692Z,1.77
2022-09-09T03:44:52.214Z,1.20
2022-09-09T03:47:22.655Z,2.43
2022-09-09T03:49:51.031Z,1.70
2022-09-09T03:52:21.618Z,1.73
2022-09-09T03:54:50.292Z,2.70
2022-09-09T03:57:17.794Z,2.80
2022-09-09T03:59:44.459Z,3.30
2022-09-09T04:02:11.189Z,3.20
2022-09-09T04:04:37.757Z,3.17
2022-09-09T04:07:06.916Z,3.07
2022-09-09T04:09:33.908Z,2.57
2022-09-09T04:12:00.295Z,2.40
2022-09-09T04:14:29.570Z,1.80
2022-09-09T04:16:58.322Z,2.10
2022-09-09T04:19:25.886Z,2.00
2022-09-09T04:21:52.504Z,1.90
2022-09-09T04:24:21.116Z,1.70
2022-09-09T04:26:48.821Z,1.60
2022-09-09T04:29:15.124Z,1.80
2022-09-09T04:31:42.945Z,2.13
2022-09-09T04:34:10.251Z,2.03
2022-09-09T04:36:36.541Z,2.30
2022-09-09T04:39:05.175Z,2.07
2022-09-09T04:41:32.307Z,2.27
2022-09-09T04:44:00.651Z,2.63
2022-09-09T04:46:27.112Z,2.33
2022-09-09T04:48:54.576Z,2.07
2022-09-09T04:51:22.563Z,2.73
2022-09-09T04:53:51.610Z,2.73
2022-09-09T04:56:19.187Z,1.73
2022-09-09T04:58:50.603Z,2.10
2022-09-09T05:01:19.871Z,2.00
2022-09-09T05:03:48.711Z,1.97
2022-09-09T05:06:19.431Z,2.20
2022-09-09T05:08:49.093Z,1.73
2022-09-09T05:11:25.017Z,1.67
2022-09-09T05:13:54.415Z,1.77
2022-09-09T05:16:22.046Z,1.53
2022-09-09T05:18:48.484Z,2.03
2022-09-09T05:21:16.409Z,2.00
2022-09-09T05:23:43.613Z,2.27
2022-09-09T05:26:17.471Z,2.10
2022-09-09T05:28:46.696Z,1.87
2022-09-09T05:31:14.064Z,3.80
2022-09-09T05:33:43.849Z,3.73
2022-09-09T05:36:15.957Z,3.27
2022-09-09T05:38:42.658Z,2.67
2022-09-09T05:41:11.936Z,2.10
2022-09-09T05:43:39.108Z,2.00
2022-09-09T05:46:06.433Z,1.77
2022-09-09T05:48:34.099Z,1.90
2022-09-09T05:51:03.382Z,2.70
2022-09-09T05:53:37.742Z,1.67
2022-09-09T05:56:04.898Z,2.43
2022-09-09T05:58:34.993Z,1.73
2022-09-09T06:01:05.504Z,2.20
2022-09-09T06:03:32.694Z,2.30
2022-09-09T06:06:06.439Z,2.00
2022-09-09T06:08:34.714Z,2.50
2022-09-09T06:11:06.748Z,1.97
2022-09-09T06:13:33.506Z,2.27
2022-09-09T06:16:00.578Z,2.47
2022-09-09T06:18:27.864Z,2.23
2022-09-09T06:20:57.838Z,1.70
2022-09-09T06:23:25.611Z,1.93
2022-09-09T06:25:52.681Z,1.77
2022-09-09T06:28:19.952Z,2.67
2022-09-09T06:30:46.432Z,2.37
2022-09-09T06:33:12.819Z,3.10
2022-09-09T06:35:39.295Z,1.90
2022-09-09T06:38:06.706Z,2.40
2022-09-09T06:40:33.064Z,2.03
2022-09-09T06:43:03.241Z,1.97
2022-09-09T06:45:37.514Z,2.63
2022-09-09T06:48:04.145Z,1.90
2022-09-09T06:50:30.718Z,1.87
2022-09-09T06:52:58.150Z,2.80
2022-09-09T06:55:24.504Z,2.20
2022-09-09T06:57:51.944Z,2.30
2022-09-09T07:00:22.464Z,2.10
2022-09-09T07:02:48.981Z,2.13
2022-09-09T07:05:16.282Z,2.50
2022-09-09T07:07:43.948Z,1.67
2022-09-09T07:10:11.900Z,2.10
2022-09-09T07:12:38.559Z,2.30
2022-09-09T07:15:06.220Z,1.87
2022-09-09T07:17:32.658Z,2.20
2022-09-09T07:20:00.459Z,2.40
2022-09-09T07:22:28.575Z,1.77
2022-09-09T07:24:55.068Z,2.20
2022-09-09T07:27:22.084Z,2.00
2022-09-09T07:29:49.578Z,1.90
2022-09-09T07:32:16.262Z,1.80
2022-09-09T07:34:42.653Z,2.17
2022-09-09T07:37:12.586Z,2.33
2022-09-09T07:39:41.892Z,1.70
2022-09-09T07:42:10.888Z,2.00
2022-09-09T07:44:37.456Z,2.27
2022-09-09T07:47:08.450Z,2.20
2022-09-09T07:49:39.094Z,1.87
2022-09-09T07:54:42.657Z,1.47
2022-09-09T07:57:09.948Z,1.50
2022-09-09T07:59:37.777Z,1.90
2022-09-09T08:02:04.291Z,1.60
2022-09-09T08:04:33.162Z,2.30
2022-09-09T08:07:01.896Z,1.57
2022-09-09T08:09:30.387Z,1.40
2022-09-09T08:12:13.926Z,1.67
2022-09-09T08:14:40.979Z,1.67
2022-09-09T08:17:07.458Z,1.30
2022-09-09T08:19:36.617Z,1.33
2022-09-09T08:22:05.543Z,1.43
2022-09-09T08:24:33.415Z,1.40
2022-09-09T08:27:00.286Z,1.90
2022-09-09T08:29:29.208Z,1.30
2022-09-09T08:31:58.122Z,1.13
2022-09-09T08:34:27.869Z,1.73
2022-09-09T08:36:55.112Z,1.40
2022-09-09T08:39:27.905Z,1.10
2022-09-09T08:42:03.736Z,1.87
2022-09-09T08:45:05.492Z,1.40
2022-09-09T08:47:34.124Z,2.13
2022-09-09T08:50:18.014Z,1.30
2022-09-09T08:52:58.210Z,1.30
2022-09-09T08:55:37.003Z,1.40
2022-09-09T08:58:26.717Z,1.37
2022-09-09T09:01:03.555Z,1.77
2022-09-09T09:03:42.439Z,1.60
2022-09-09T09:06:11.791Z,1.63
2022-09-09T09:08:52.481Z,1.30
2022-09-09T09:11:18.963Z,1.20
2022-09-09T09:13:45.347Z,1.20
2022-09-09T09:16:45.064Z,1.20
2022-09-09T09:19:15.265Z,1.60
2022-09-09T09:21:44.712Z,1.20
2022-09-09T09:24:22.015Z,1.10
2022-09-09T09:26:50.455Z,1.50
2022-09-09T09:29:19.714Z,1.40
2022-09-09T09:31:56.411Z,1.40
2022-09-09T09:34:25.287Z,1.17
2022-09-09T09:36:59.546Z,1.33
2022-09-09T09:42:24.183Z,1.37
2022-09-09T09:44:53.427Z,1.23
2022-09-09T09:47:24.283Z,1.60
2022-09-09T09:50:18.651Z,1.80
2022-09-09T09:52:54.223Z,1.67
2022-09-09T09:55:22.191Z,1.57
2022-09-09T09:57:49.411Z,1.50
2022-09-09T10:00:22.156Z,1.33
2022-09-09T10:03:00.571Z,1.60
2022-09-09T10:05:35.163Z,1.87
2022-09-09T10:08:11.552Z,1.57
2022-09-09T10:10:56.877Z,1.30
2022-09-09T10:13:37.355Z,1.67
2022-09-09T10:16:15.886Z,1.40
2022-09-09T10:18:42.227Z,1.47
2022-09-09T10:21:49.228Z,1.50
2022-09-09T10:24:42.285Z,1.20
2022-09-09T10:27:17.738Z,1.60
2022-09-09T10:29:44.897Z,1.40
2022-09-09T10:32:14.591Z,1.50
2022-09-09T10:35:04.696Z,1.17
2022-09-09T10:38:00.408Z,1.10
2022-09-09T10:40:35.351Z,1.43
2022-09-09T10:43:20.320Z,1.17
2022-09-09T10:46:29.181Z,1.10
2022-09-09T10:49:22.036Z,1.33
2022-09-09T10:51:50.533Z,1.23
2022-09-09T10:54:22.397Z,1.17
2022-09-09T10:56:54.371Z,1.07
2022-09-09T10:59:27.156Z,0.97
2022-09-09T11:02:00.523Z,1.00
2022-09-09T11:04:31.905Z,1.03
2022-09-09T11:06:59.427Z,1.10
2022-09-09T11:09:31.507Z,1.10
2022-09-09T11:12:02.592Z,1.40
2022-09-09T11:14:50.548Z,1.40
2022-09-09T11:17:19.470Z,1.47
2022-09-09T11:19:46.039Z,1.23
2022-09-09T11:22:32.297Z,1.10
2022-09-09T11:25:01.314Z,0.97
2022-09-09T11:27:38.213Z,1.20
2022-09-09T11:30:53.848Z,1.73
2022-09-09T11:33:29.340Z,1.00
2022-09-09T11:36:05.878Z,1.37
2022-09-09T11:38:54.516Z,1.43
2022-09-09T11:41:21.873Z,1.40
2022-09-09T11:43:53.077Z,1.60
2022-09-09T11:46:36.733Z,1.20
2022-09-09T11:49:04.594Z,1.00
2022-09-09T11:51:31.988Z,1.63
2022-09-09T11:54:23.038Z,1.40
2022-09-09T11:56:49.523Z,1.30
2022-09-09T11:59:27.776Z,1.57
2022-09-09T12:02:09.831Z,1.10
2022-09-09T12:04:40.679Z,1.00
2022-09-09T12:07:46.228Z,1.20
2022-09-09T12:10:27.193Z,1.20
2022-09-09T12:12:53.659Z,1.20
2022-09-09T12:15:28.972Z,1.43
2022-09-09T12:18:02.137Z,1.23
2022-09-09T12:20:35.327Z,1.40
2022-09-09T12:23:17.130Z,1.10
2022-09-09T12:25:43.389Z,1.23
2022-09-09T12:28:19.604Z,1.30
2022-09-09T12:30:45.981Z,1.20
2022-09-09T12:33:14.161Z,1.63
2022-09-09T12:35:44.414Z,1.50
2022-09-09T12:38:14.777Z,1.57
2022-09-09T12:40:41.100Z,1.10
2022-09-09T12:43:22.133Z,1.20
2022-09-09T12:45:57.495Z,1.07
2022-09-09T12:48:32.057Z,1.20
2022-09-09T12:50:58.664Z,1.47
2022-09-09T12:53:30.914Z,1.40
2022-09-09T12:56:04.567Z,1.10
2022-09-09T12:58:34.358Z,1.30
2022-09-09T13:01:03.401Z,1.43
2022-09-09T13:03:29.839Z,1.43
2022-09-09T13:06:01.226Z,1.10
2022-09-09T13:08:27.738Z,1.30
2022-09-09T13:11:03.119Z,1.47
2022-09-09T13:13:36.855Z,1.40
2022-09-09T13:16:05.565Z,1.80
2022-09-09T13:18:37.335Z,2.33
2022-09-09T13:21:04.005Z,1.90
2022-09-09T13:23:33.474Z,1.50
2022-09-09T13:26:02.231Z,1.63
2022-09-09T13:28:34.146Z,1.50
2022-09-09T13:31:07.819Z,1.87
2022-09-09T13:33:35.433Z,1.73
2022-09-09T13:36:08.581Z,1.90
2022-09-09T13:38:39.451Z,1.83
2022-09-09T13:41:08.867Z,1.93
2022-09-09T13:43:45.897Z,1.77
2022-09-09T13:46:31.020Z,1.57
2022-09-09T13:48:59.362Z,1.53
2022-09-09T13:51:35.733Z,1.50
2022-09-09T13:54:02.242Z,1.40
2022-09-09T13:56:28.621Z,1.93
2022-09-09T13:58:54.969Z,1.60
2022-09-09T14:01:21.422Z,1.50
2022-09-09T14:03:47.859Z,1.40
2022-09-09T14:06:14.618Z,1.30
2022-09-09T14:08:41.198Z,1.60
2022-09-09T14:11:13.263Z,1.50
2022-09-09T14:13:39.793Z,2.17
2022-09-09T14:16:06.359Z,1.80
2022-09-09T14:18:32.915Z,1.43
2022-09-09T14:20:59.575Z,1.80
2022-09-09T14:23:25.875Z,1.50
2022-09-09T14:25:52.723Z,1.57
2022-09-09T14:28:25.838Z,1.53
2022-09-09T14:31:06.272Z,1.10
2022-09-09T14:33:33.140Z,1.20
2022-09-09T14:36:04.534Z,1.40
2022-09-09T14:38:40.290Z,1.40
2022-09-09T14:41:07.762Z,1.30
2022-09-09T14:43:34.122Z,1.33
2022-09-09T14:46:07.819Z,1.47
2022-09-09T14:48:34.888Z,1.60
2022-09-09T14:51:14.697Z,1.23
2022-09-09T14:53:41.175Z,2.40
2022-09-09T14:56:08.288Z,1.50
2022-09-09T14:58:35.652Z,1.50
2022-09-09T15:01:06.679Z,1.20
2022-09-09T15:03:33.170Z,1.20
2022-09-09T15:05:59.470Z,1.60
2022-09-09T15:08:26.932Z,1.63
2022-09-09T15:10:59.748Z,1.57
2022-09-09T15:13:26.383Z,0.90
2022-09-09T15:15:52.850Z,1.10
2022-09-09T15:18:19.182Z,1.40
2022-09-09T15:20:47.291Z,1.90
2022-09-09T15:23:13.605Z,1.27
2022-09-09T15:25:39.940Z,1.30
2022-09-09T15:28:06.306Z,1.33
2022-09-09T15:30:32.666Z,1.20
2022-09-09T15:32:59.075Z,1.47
2022-09-09T15:35:25.341Z,1.20
2022-09-09T15:37:51.673Z,1.00
2022-09-09T15:40:18.272Z,1.10
2022-09-09T15:42:46.171Z,0.90
2022-09-09T15:45:13.445Z,1.13
2022-09-09T15:47:40.526Z,0.93
2022-09-09T15:50:07.091Z,1.07
2022-09-09T15:52:34.101Z,0.90
2022-09-09T15:55:01.496Z,1.33
2022-09-09T15:57:28.109Z,1.07
2022-09-09T15:59:54.459Z,1.10
2022-09-09T16:02:20.836Z,1.37
2022-09-09T16:04:47.190Z,0.93
2022-09-09T16:07:14.395Z,0.90
2022-09-09T16:09:40.656Z,1.30
2022-09-09T16:12:07.346Z,1.13
2022-09-09T16:14:36.722Z,1.17
2022-09-09T16:17:04.304Z,1.30
2022-09-09T16:19:30.798Z,1.33
2022-09-09T16:21:57.510Z,1.70
2022-09-09T16:24:24.838Z,1.10
2022-09-09T16:26:52.305Z,0.93
2022-09-09T16:29:19.900Z,1.00
2022-09-09T16:31:47.621Z,1.10
2022-09-09T16:34:15.641Z,1.30
2022-09-09T16:36:43.458Z,1.10
2022-09-09T16:39:15.234Z,1.20
2022-09-09T16:41:44.671Z,1.10
2022-09-09T16:44:11.734Z,1.30
2022-09-09T16:46:40.721Z,1.20
2022-09-09T16:49:09.329Z,0.83
2022-09-09T16:51:38.714Z,1.70
2022-09-09T16:54:07.407Z,1.33
2022-09-09T16:56:37.864Z,1.30
2022-09-09T16:59:07.438Z,1.20
2022-09-09T17:01:38.289Z,1.33
2022-09-09T17:04:07.863Z,1.10
2022-09-09T17:06:38.967Z,1.27
2022-09-09T17:09:11.246Z,1.07
2022-09-09T17:11:40.868Z,1.50
2022-09-09T17:14:08.820Z,1.67
2022-09-09T17:16:35.235Z,1.10
2022-09-09T17:19:04.423Z,1.50
2022-09-09T17:21:32.554Z,1.23
2022-09-09T17:24:00.147Z,1.50
2022-09-09T17:26:28.040Z,1.57
2022-09-09T17:28:59.409Z,1.53
2022-09-09T17:31:28.305Z,1.40
2022-09-09T17:33:55.602Z,1.60
2022-09-09T17:36:25.859Z,1.50
2022-09-09T17:38:52.778Z,1.77
2022-09-09T17:41:24.869Z,1.70
2022-09-09T17:43:51.640Z,1.67
2022-09-09T17:46:22.818Z,1.93
2022-09-09T17:48:50.864Z,1.80
2022-09-09T17:51:24.436Z,2.47
2022-09-09T17:53:51.152Z,1.80
2022-09-09T17:56:20.896Z,1.70
2022-09-09T17:58:47.918Z,2.73
2022-09-09T18:01:20.714Z,2.20
2022-09-09T18:03:47.471Z,1.40
2022-09-09T18:06:24.002Z,1.57
2022-09-09T18:08:51.570Z,1.80
2022-09-09T18:11:18.808Z,1.60
2022-09-09T18:13:53.101Z,2.10
2022-09-09T18:16:19.959Z,1.90
2022-09-09T18:18:50.234Z,1.80
2022-09-09T18:21:18.680Z,2.03
2022-09-09T18:23:49.301Z,1.83
2022-09-09T18:26:19.469Z,1.90
2022-09-09T18:28:50.870Z,2.43
2022-09-09T18:31:19.685Z,2.47
2022-09-09T18:33:49.083Z,2.10
2022-09-09T18:36:22.178Z,2.20
2022-09-09T18:38:49.125Z,1.57
2022-09-09T18:41:21.344Z,1.87
2022-09-09T18:43:49.688Z,1.63
2022-09-09T18:46:17.791Z,1.77
2022-09-09T18:48:48.017Z,1.70
2022-09-09T18:51:16.288Z,1.87
2022-09-09T18:53:42.799Z,1.80
2022-09-09T18:56:10.295Z,1.77
2022-09-09T18:58:37.001Z,1.80
2022-09-09T19:01:06.019Z,1.60
2022-09-09T19:03:35.546Z,1.37
2022-09-09T19:06:07.037Z,1.73
2022-09-09T19:08:39.187Z,1.50
2022-09-09T19:11:08.606Z,1.53
2022-09-09T19:13:36.288Z,1.40
2022-09-09T19:16:07.523Z,1.30
2022-09-09T19:18:36.695Z,2.40
2022-09-09T19:21:14.730Z,1.63
2022-09-09T19:23:41.578Z,1.63
2022-09-09T19:26:08.644Z,1.67
2022-09-09T19:28:35.971Z,1.77
2022-09-09T19:31:07.429Z,1.80
2022-09-09T19:33:35.227Z,1.70
2022-09-09T19:36:02.725Z,1.70
2022-09-09T19:38:30.176Z,1.60
2022-09-09T19:40:56.762Z,1.80
2022-09-09T19:43:24.242Z,1.50
2022-09-09T19:46:02.222Z,1.20
2022-09-09T19:48:37.375Z,1.40
2022-09-09T19:51:05.216Z,1.53
2022-09-09T19:53:32.196Z,1.40
2022-09-09T19:55:58.595Z,1.17
2022-09-09T19:58:25.093Z,1.57
2022-09-09T20:00:51.725Z,1.50
2022-09-09T20:03:19.956Z,1.40
2022-09-09T20:05:49.135Z,1.50
2022-09-09T20:08:15.571Z,1.50
2022-09-09T20:10:51.942Z,1.43
2022-09-09T20:13:18.700Z,1.60
2022-09-09T20:15:45.085Z,1.70
2022-09-09T20:18:11.505Z,1.60
2022-09-09T20:20:42.634Z,1.90
2022-09-09T20:23:08.949Z,1.77
2022-09-09T20:25:38.332Z,1.77
2022-09-09T20:28:04.707Z,1.70
2022-09-09T20:30:31.203Z,1.70
2022-09-09T20:32:57.539Z,1.43
2022-09-09T20:35:24.196Z,1.40
2022-09-09T20:37:50.701Z,1.60
2022-09-09T20:40:17.230Z,1.60
2022-09-09T20:42:43.754Z,1.87
2022-09-09T20:45:16.018Z,1.40
2022-09-09T20:47:42.346Z,1.70
2022-09-09T20:50:09.603Z,1.93
2022-09-09T20:52:35.972Z,1.87
2022-09-09T20:55:02.341Z,2.60
2022-09-09T20:57:28.693Z,2.30
2022-09-09T20:59:55.019Z,2.30
2022-09-09T21:02:21.705Z,2.00
2022-09-09T21:04:49.388Z,1.70
2022-09-09T21:07:15.726Z,1.83
2022-09-09T21:09:42.081Z,2.00
2022-09-09T21:12:08.607Z,1.30
2022-09-09T21:14:34.872Z,1.50
2022-09-09T21:17:03.062Z,1.10
2022-09-09T21:19:29.475Z,1.67
2022-09-09T21:21:57.003Z,1.50
2022-09-09T21:24:23.349Z,1.43
2022-09-09T21:26:49.961Z,1.03
2022-09-09T21:29:16.269Z,1.50
2022-09-09T21:31:43.423Z,1.27
2022-09-09T21:34:09.816Z,1.30
2022-09-09T21:36:36.227Z,1.30
2022-09-09T21:39:02.574Z,1.30
2022-09-09T21:41:29.052Z,1.43
2022-09-09T21:43:56.304Z,1.17
2022-09-09T21:46:23.570Z,1.33
2022-09-09T21:48:50.588Z,1.20
2022-09-09T21:51:17.348Z,1.27
2022-09-09T21:53:44.366Z,1.37
2022-09-09T21:56:14.429Z,1.50
2022-09-09T21:58:41.634Z,1.40
2022-09-09T22:01:14.497Z,1.63
2022-09-09T22:03:42.354Z,1.57
2022-09-09T22:09:36.848Z,1.43
2022-09-09T22:12:03.235Z,2.10
2022-09-09T22:14:29.463Z,1.70
2022-09-09T22:16:55.948Z,1.57
2022-09-09T22:19:22.974Z,2.17
2022-09-09T22:21:49.308Z,1.53
2022-09-09T22:24:15.634Z,1.47
2022-09-09T22:26:42.122Z,1.60
2022-09-09T22:29:08.936Z,1.47
2022-09-09T22:31:36.085Z,1.70
2022-09-09T22:34:03.608Z,1.70
2022-09-09T22:36:31.608Z,1.57
2022-09-09T22:38:58.168Z,1.60
2022-09-09T22:41:25.095Z,1.60
2022-09-09T22:43:51.473Z,1.63
2022-09-09T22:46:18.754Z,1.47
2022-09-09T22:48:45.199Z,1.80
2022-09-09T22:51:12.308Z,2.10
2022-09-09T22:53:43.315Z,1.63
2022-09-09T22:56:15.507Z,1.90
2022-09-09T22:58:41.811Z,1.30
2022-09-09T23:01:12.066Z,1.80
2022-09-09T23:03:41.117Z,1.60
2022-09-09T23:06:09.891Z,2.00
2022-09-09T23:08:38.108Z,1.60
2022-09-09T23:11:08.686Z,1.80
2022-09-09T23:13:37.063Z,1.73
2022-09-09T23:16:15.014Z,1.90
2022-09-09T23:18:41.807Z,1.70
2022-09-09T23:21:09.200Z,2.00
2022-09-09T23:23:35.448Z,2.07
2022-09-09T23:26:03.411Z,1.13
2022-09-09T23:28:35.102Z,1.63
2022-09-09T23:31:01.815Z,1.57
2022-09-09T23:33:28.879Z,1.50
2022-09-09T23:36:01.720Z,1.40
2022-09-09T23:38:31.149Z,1.60
2022-09-09T23:41:01.573Z,1.70
2022-09-09T23:43:28.789Z,1.63
2022-09-09T23:45:56.884Z,1.60
2022-09-09T23:48:26.785Z,1.80
2022-09-09T23:50:53.147Z,1.50
2022-09-09T23:53:19.449Z,1.87
2022-09-09T23:55:45.889Z,1.90
2022-09-09T23:58:12.214Z,1.70
